Time;durP1;ratioP1;P1;durP2;ratioP2;P2;SDS_P1;SDS_P2;PMS_P1;PMS_P2;Temp;Humidity;BMP_temperature;BMP_pressure;BME280_temperature;BME280_humidity;BME280_pressure;Samples;Min_cycle;Max_cycle;Signal;HPM_P1;HPM_P2
2022/09/03 00:02:32;;;;;;;1.50;1.00;;;;;;;16.58;51.08;100999.59;4992346;28;20245;-82
2022/09/03 00:05:05;;;;;;;2.50;0.97;;;;;;;16.57;51.00;100997.88;4998678;28;20281;-83
2022/09/03 00:07:36;;;;;;;0.77;0.77;;;;;;;16.53;51.34;100983.97;4999449;28;20228;-83
2022/09/03 00:10:07;;;;;;;0.60;0.60;;;;;;;16.52;51.14;100979.59;4999001;28;20274;-82
2022/09/03 00:12:41;;;;;;;1.80;1.00;;;;;;;16.50;51.23;100983.19;4998844;28;20265;-82
2022/09/03 00:15:15;;;;;;;0.70;0.70;;;;;;;16.45;51.67;100968.41;4990133;28;20210;-82
2022/09/03 00:17:49;;;;;;;0.83;0.83;;;;;;;16.38;51.64;100971.31;4999287;28;20208;-81
2022/09/03 00:20:20;;;;;;;1.80;1.00;;;;;;;16.34;51.74;100956.53;4998599;28;20208;-81
2022/09/03 00:22:51;;;;;;;1.50;1.00;;;;;;;16.30;51.92;100952.28;4999217;28;20224;-82
2022/09/03 00:25:23;;;;;;;1.37;0.70;;;;;;;16.25;52.03;100948.03;4998702;28;20211;-82
2022/09/03 00:27:57;;;;;;;1.13;1.03;;;;;;;16.21;52.37;100937.63;4998484;28;20231;-79
2022/09/03 00:30:24;;;;;;;3.27;0.97;;;;;;;16.16;52.47;100929.91;4998910;28;20650;-82
2022/09/03 00:32:56;;;;;;;1.23;1.00;;;;;;;16.16;52.38;100924.63;4999319;28;20224;-82
2022/09/03 00:35:28;;;;;;;2.50;0.90;;;;;;;16.14;52.45;100922.97;4998493;28;20346;-80
2022/09/03 00:37:55;;;;;;;0.70;0.70;;;;;;;16.14;52.41;100931.72;4999329;28;20262;-80
2022/09/03 00:40:41;;;;;;;1.57;0.90;;;;;;;16.04;52.85;100918.00;4998996;28;20238;-81
2022/09/03 00:43:31;;;;;;;2.63;1.13;;;;;;;16.06;52.70;100908.28;4998327;28;20238;-83
2022/09/03 00:46:09;;;;;;;1.90;0.90;;;;;;;16.04;52.92;100906.63;4985408;28;20243;-81
2022/09/03 00:48:47;;;;;;;1.47;0.80;;;;;;;16.02;53.07;100896.13;4998491;28;20264;-79
2022/09/03 00:51:24;;;;;;;1.47;0.90;;;;;;;15.99;53.16;100895.38;4999080;28;20203;-82
2022/09/03 00:53:59;;;;;;;2.73;1.07;;;;;;;15.96;53.33;100895.50;4999259;28;20289;-81
2022/09/03 00:56:36;;;;;;;1.37;0.97;;;;;;;15.95;53.24;100889.34;4997753;28;20731;-81
2022/09/03 00:59:14;;;;;;;1.27;0.90;;;;;;;15.93;53.43;100888.53;4998328;28;20209;-80
2022/09/03 01:01:49;;;;;;;1.10;1.00;;;;;;;15.89;53.23;100885.13;4997738;28;20294;-79
2022/09/03 01:04:35;;;;;;;1.60;0.90;;;;;;;15.83;53.43;100879.22;4999200;28;20572;-81
2022/09/03 01:07:14;;;;;;;1.30;1.00;;;;;;;15.81;53.78;100878.41;4999173;28;20211;-82
2022/09/03 01:09:50;;;;;;;1.10;1.00;;;;;;;15.77;53.88;100880.28;4998180;28;20270;-82
2022/09/03 01:12:29;;;;;;;0.90;0.90;;;;;;;15.74;53.75;100875.16;4998893;28;20234;-82
2022/09/03 01:15:06;;;;;;;1.03;0.90;;;;;;;15.77;54.22;100872.41;4989534;28;20214;-82
2022/09/03 01:17:59;;;;;;;1.80;0.90;;;;;;;15.69;54.33;100875.25;4996489;28;20203;-81
2022/09/03 01:20:44;;;;;;;1.80;0.97;;;;;;;15.67;54.14;100870.97;4996780;28;20258;-80
2022/09/03 01:23:34;;;;;;;1.23;1.10;;;;;;;15.62;54.36;100870.28;4996363;28;20317;-81
2022/09/03 01:26:16;;;;;;;1.83;0.83;;;;;;;15.55;54.72;100858.22;4995682;28;20210;-81
2022/09/03 01:28:55;;;;;;;1.63;1.10;;;;;;;15.54;54.54;100846.84;4995626;28;20671;-80
2022/09/03 01:31:29;;;;;;;1.70;0.80;;;;;;;15.50;54.68;100855.75;4996122;28;20286;-81
2022/09/03 01:34:05;;;;;;;1.30;0.90;;;;;;;15.46;55.02;100847.09;4996219;28;20227;-82
2022/09/03 01:36:42;;;;;;;1.77;0.90;;;;;;;15.46;54.99;100833.03;4995680;28;20210;-80
2022/09/03 01:39:14;;;;;;;1.47;1.00;;;;;;;15.40;55.40;100847.28;4996224;28;20268;-81
2022/09/03 01:44:51;;;;;;;1.07;0.80;;;;;;;15.37;55.46;100836.84;4987376;28;20235;-81
2022/09/03 01:47:29;;;;;;;1.13;0.80;;;;;;;15.34;55.19;100834.34;4995288;28;20230;-80
2022/09/03 01:50:02;;;;;;;1.10;1.00;;;;;;;15.31;55.71;100834.41;4996158;28;20202;-81
2022/09/03 01:52:40;;;;;;;2.67;0.90;;;;;;;15.27;55.46;100838.06;4995885;28;20713;-81
2022/09/03 01:55:23;;;;;;;1.50;1.00;;;;;;;15.26;55.70;100831.94;4995873;28;20265;-82
2022/09/03 01:57:55;;;;;;;0.80;0.80;;;;;;;15.22;55.84;100825.06;4995364;28;20578;-82
2022/09/03 02:00:26;;;;;;;2.13;1.00;;;;;;;15.20;55.93;100826.00;4995933;28;20221;-81
2022/09/03 02:02:55;;;;;;;6.83;1.10;;;;;;;15.17;55.93;100821.72;4995019;28;20231;-81
2022/09/03 02:05:26;;;;;;;2.07;1.17;;;;;;;15.15;56.25;100822.69;4995360;28;20207;-80
2022/09/03 02:08:00;;;;;;;2.37;1.00;;;;;;;15.14;56.25;100818.31;4995003;28;20234;-80
2022/09/03 02:10:31;;;;;;;1.50;0.97;;;;;;;15.13;56.19;100811.34;4995781;28;20210;-80
2022/09/03 02:13:01;;;;;;;1.67;0.87;;;;;;;15.09;56.48;100810.56;4997253;28;20725;-81
2022/09/03 02:15:31;;;;;;;1.60;1.03;;;;;;;15.08;56.35;100811.47;4993573;28;20202;-80
2022/09/03 02:18:01;;;;;;;0.97;0.90;;;;;;;15.03;56.63;100809.00;5001248;28;20256;-80
2022/09/03 02:20:30;;;;;;;0.87;0.87;;;;;;;15.03;56.46;100809.00;5002112;28;20255;-81
2022/09/03 02:22:57;;;;;;;1.40;0.90;;;;;;;15.03;56.48;100810.78;5001784;28;20281;-80
2022/09/03 02:25:32;;;;;;;1.87;1.03;;;;;;;15.01;56.54;100800.31;5001969;28;20242;-82
2022/09/03 02:27:59;;;;;;;0.83;0.83;;;;;;;15.00;56.62;100803.81;5001708;28;20226;-81
2022/09/03 02:30:26;;;;;;;2.17;1.00;;;;;;;15.00;56.73;100805.59;5001852;28;20281;-82
2022/09/03 02:32:53;;;;;;;1.27;0.77;;;;;;;15.01;56.35;100804.72;5001721;28;20719;-81
2022/09/03 02:35:20;;;;;;;1.10;1.00;;;;;;;15.04;56.25;100799.34;5001775;28;20205;-80
2022/09/03 02:37:46;;;;;;;0.90;0.90;;;;;;;15.01;56.34;100809.97;5001436;28;20205;-81
2022/09/03 02:40:13;;;;;;;2.40;1.20;;;;;;;15.02;56.39;100804.63;5001977;28;20211;-80
2022/09/03 02:42:43;;;;;;;1.80;1.00;;;;;;;14.99;56.72;100804.75;5001314;28;20230;-81
2022/09/03 02:45:20;;;;;;;0.80;0.80;;;;;;;15.00;56.56;100808.22;4993256;28;20217;-82
2022/09/03 02:47:51;;;;;;;0.87;0.87;;;;;;;14.98;56.61;100804.78;5001626;28;20799;-79
2022/09/03 02:50:19;;;;;;;2.03;0.90;;;;;;;14.96;57.13;100806.59;5001821;28;20729;-80
2022/09/03 02:52:45;;;;;;;2.43;1.00;;;;;;;14.94;56.89;100798.75;5001922;28;20234;-80
2022/09/03 02:55:12;;;;;;;1.07;1.07;;;;;;;14.92;57.05;100795.31;5001494;28;20206;-82
2022/09/03 02:57:38;;;;;;;2.40;1.00;;;;;;;14.87;56.75;100795.47;5001465;28;20546;-81
2022/09/03 03:00:07;;;;;;;1.87;1.20;;;;;;;14.91;56.94;100806.75;5001673;28;20211;-80
2022/09/03 03:02:33;;;;;;;0.80;0.80;;;;;;;14.87;57.09;100795.47;5002004;28;20237;-80
2022/09/03 03:05:00;;;;;;;0.90;0.90;;;;;;;14.85;56.82;100802.53;5001043;28;20633;-82
2022/09/03 03:07:31;;;;;;;0.90;0.90;;;;;;;14.81;57.26;100802.69;5001925;28;20245;-79
2022/09/03 03:09:58;;;;;;;2.03;1.37;;;;;;;14.81;57.20;100787.78;5001623;28;20764;-81
2022/09/03 03:12:24;;;;;;;0.90;0.90;;;;;;;14.75;57.68;100798.50;5001762;28;20207;-80
2022/09/03 03:14:50;;;;;;;1.30;1.03;;;;;;;14.70;57.93;100789.88;4993222;28;20207;-82
2022/09/03 03:17:17;;;;;;;1.53;0.80;;;;;;;14.73;57.49;100775.78;5002208;28;20214;-81
2022/09/03 03:19:48;;;;;;;1.73;1.10;;;;;;;14.72;57.66;100776.69;5001541;28;20682;-82
2022/09/03 03:22:14;;;;;;;1.80;1.07;;;;;;;14.72;57.80;100774.91;5002191;28;20206;-82
2022/09/03 03:24:42;;;;;;;1.30;0.90;;;;;;;14.67;58.12;100775.06;4999685;28;20238;-82
2022/09/03 03:27:09;;;;;;;0.97;0.90;;;;;;;14.67;57.73;100776.84;4999349;28;20214;-82
2022/09/03 03:29:36;;;;;;;2.33;1.00;;;;;;;14.64;57.89;100774.28;4999002;28;20230;-80
2022/09/03 03:32:03;;;;;;;0.80;0.80;;;;;;;14.63;58.08;100764.72;4998884;28;20211;-81
2022/09/03 03:34:29;;;;;;;1.73;1.00;;;;;;;14.66;58.08;100761.97;4998955;28;20250;-82
2022/09/03 03:36:58;;;;;;;0.90;0.90;;;;;;;14.63;57.97;100767.34;4998299;28;20209;-82
2022/09/03 03:39:26;;;;;;;1.27;1.00;;;;;;;14.66;58.38;100759.34;4999172;28;20214;-82
2022/09/03 03:41:57;;;;;;;1.10;1.00;;;;;;;14.60;58.06;100770.91;4998781;28;20680;-82
2022/09/03 03:44:23;;;;;;;1.10;0.90;;;;;;;14.56;58.28;100763.13;4990205;28;20251;-80
2022/09/03 03:46:49;;;;;;;1.17;0.90;;;;;;;14.57;58.77;100750.00;4998183;28;20276;-83
2022/09/03 03:49:16;;;;;;;1.20;0.97;;;;;;;14.56;58.48;100753.50;4998539;28;20643;-80
2022/09/03 03:51:42;;;;;;;1.90;0.87;;;;;;;14.53;58.79;100758.84;4998911;28;20235;-81
2022/09/03 03:54:08;;;;;;;1.27;0.80;;;;;;;14.50;58.47;100758.91;4998874;28;20652;-82
2022/09/03 03:56:35;;;;;;;1.30;1.10;;;;;;;14.45;59.02;100751.19;4998494;28;20728;-80
2022/09/03 03:59:03;;;;;;;1.10;1.00;;;;;;;14.41;58.96;100746.94;4998449;28;20219;-82
2022/09/03 04:01:30;;;;;;;1.37;0.90;;;;;;;14.44;59.49;100740.72;4998713;28;20208;-81
2022/09/03 04:03:58;;;;;;;2.30;0.80;;;;;;;14.47;58.78;100735.38;4998793;28;20227;-81
2022/09/03 04:06:25;;;;;;;1.23;1.13;;;;;;;14.43;59.25;100728.47;4998814;28;20293;-82
2022/09/03 04:08:52;;;;;;;0.87;0.80;;;;;;;14.39;59.03;100732.97;4998334;28;20257;-81
2022/09/03 04:11:20;;;;;;;0.93;0.90;;;;;;;14.37;59.09;100733.91;4998786;28;20238;-82
2022/09/03 04:13:47;;;;;;;1.00;0.90;;;;;;;14.35;59.42;100736.63;4994771;28;20303;-82
2022/09/03 04:16:19;;;;;;;1.20;1.10;;;;;;;14.35;59.39;100727.84;4994033;28;20258;-81
2022/09/03 04:18:47;;;;;;;0.90;0.90;;;;;;;14.34;59.44;100723.53;4999092;28;20663;-82
2022/09/03 04:21:16;;;;;;;1.70;0.80;;;;;;;14.35;59.59;100722.59;4999461;28;20214;-81
2022/09/03 04:23:44;;;;;;;1.00;1.00;;;;;;;14.31;59.92;100721.84;4998059;28;20606;-82
2022/09/03 04:26:14;;;;;;;0.90;0.90;;;;;;;14.31;59.52;100711.34;4997469;28;20257;-80
2022/09/03 04:28:41;;;;;;;2.10;0.80;;;;;;;14.28;59.86;100719.31;4997592;28;20254;-81
2022/09/03 04:31:09;;;;;;;0.80;0.80;;;;;;;14.30;59.89;100717.50;4997587;28;20210;-82
2022/09/03 04:33:38;;;;;;;0.90;0.90;;;;;;;14.27;59.93;100713.19;4997492;28;20259;-82
2022/09/03 04:36:06;;;;;;;2.30;1.23;;;;;;;14.23;60.11;100708.94;4997600;28;20210;-80
2022/09/03 04:38:33;;;;;;;3.97;1.10;;;;;;;14.25;59.87;100711.50;4997805;28;20653;-82
2022/09/03 04:41:01;;;;;;;2.57;1.10;;;;;;;14.22;60.19;100704.59;4997518;28;20264;-81
2022/09/03 04:43:34;;;;;;;0.80;0.80;;;;;;;14.21;60.15;100705.50;4996083;28;20230;-83
2022/09/03 04:46:02;;;;;;;1.90;1.60;;;;;;;14.20;60.29;100706.41;4991143;28;20265;-83
2022/09/03 04:48:29;;;;;;;0.73;0.73;;;;;;;14.18;60.36;100691.59;4997774;28;20254;-82
2022/09/03 04:51:05;;;;;;;2.30;1.23;;;;;;;14.18;60.16;100704.75;4997488;28;20206;-82
2022/09/03 04:53:32;;;;;;;1.90;0.97;;;;;;;14.16;60.24;100710.03;4998036;28;20277;-82
2022/09/03 04:55:58;;;;;;;1.10;1.10;;;;;;;14.20;59.94;100705.56;4996963;28;20748;-83
2022/09/03 04:58:25;;;;;;;0.80;0.80;;;;;;;14.17;60.26;100706.50;4997209;28;20211;-83
2022/09/03 05:00:53;;;;;;;0.93;0.93;;;;;;;14.13;60.23;100709.25;4997553;28;20257;-81
2022/09/03 05:03:20;;;;;;;1.67;1.03;;;;;;;14.10;60.37;100702.34;4997052;28;20722;-82
2022/09/03 05:05:52;;;;;;;1.63;1.20;;;;;;;14.12;60.48;100705.78;4996452;28;20221;-82
2022/09/03 05:08:20;;;;;;;1.10;0.90;;;;;;;14.10;60.88;100700.56;4997782;28;20241;-82
2022/09/03 05:10:46;;;;;;;0.80;0.80;;;;;;;14.10;60.35;100705.81;4997622;28;20219;-82
2022/09/03 05:13:13;;;;;;;0.93;0.93;;;;;;;14.08;60.72;100704.16;4997277;28;20257;-83
2022/09/03 05:15:44;;;;;;;1.27;1.17;;;;;;;14.08;60.91;100701.53;4988518;28;20199;-83
2022/09/03 05:18:10;;;;;;;0.90;0.90;;;;;;;14.08;60.80;100698.91;4998437;28;20276;-83
2022/09/03 05:20:37;;;;;;;1.03;0.83;;;;;;;14.06;60.98;100701.56;4997582;28;20211;-82
2022/09/03 05:23:03;;;;;;;1.03;0.93;;;;;;;14.03;61.28;100701.66;4996855;28;20231;-82
2022/09/03 05:25:32;;;;;;;1.70;1.00;;;;;;;14.05;61.03;100689.34;4997375;28;20218;-82
2022/09/03 05:27:58;;;;;;;2.87;0.80;;;;;;;14.08;61.34;100691.03;4996973;28;20285;-82
2022/09/03 05:30:25;;;;;;;1.43;1.00;;;;;;;14.07;61.11;100691.91;4997312;28;20292;-82
2022/09/03 05:32:54;;;;;;;2.40;1.00;;;;;;;14.09;60.84;100684.84;4997298;28;20697;-82
2022/09/03 05:35:21;;;;;;;2.30;1.00;;;;;;;14.06;61.42;100683.19;4986096;28;20741;-82
2022/09/03 05:37:47;;;;;;;1.30;1.20;;;;;;;14.02;61.40;100685.94;4967387;28;20207;-82
2022/09/03 05:40:14;;;;;;;2.30;1.00;;;;;;;14.01;61.76;100684.22;4967961;28;20196;-82
2022/09/03 05:42:41;;;;;;;1.17;1.07;;;;;;;14.03;61.54;100672.78;4968555;28;20723;-81
2022/09/03 05:45:09;;;;;;;1.50;1.10;;;;;;;14.01;61.99;100669.34;4969448;28;20225;-82
2022/09/03 05:47:38;;;;;;;1.40;0.93;;;;;;;14.01;61.82;100665.84;4966797;28;20211;-82
2022/09/03 05:50:06;;;;;;;4.03;1.00;;;;;;;14.00;61.81;100661.50;4968559;28;20234;-82
2022/09/03 05:52:34;;;;;;;0.93;0.90;;;;;;;14.05;62.26;100643.84;4966730;28;20227;-82
2022/09/03 05:55:00;;;;;;;1.20;1.10;;;;;;;14.09;61.82;100648.97;4971370;28;20254;-81
2022/09/03 05:57:28;;;;;;;0.80;0.80;;;;;;;14.09;62.03;100656.84;4980974;28;20699;-80
2022/09/03 05:59:56;;;;;;;1.00;1.00;;;;;;;14.12;61.81;100649.78;4979271;28;20204;-80
2022/09/03 06:02:24;;;;;;;2.53;1.10;;;;;;;14.15;62.22;100649.69;4977244;28;20203;-80
2022/09/03 06:04:51;;;;;;;0.90;0.90;;;;;;;14.17;62.05;100653.13;4977309;28;20208;-80
2022/09/03 06:07:17;;;;;;;1.67;1.20;;;;;;;14.23;61.87;100652.94;4980039;28;20203;-81
2022/09/03 06:09:43;;;;;;;0.93;0.93;;;;;;;14.25;62.11;100662.50;4982852;28;20215;-80
2022/09/03 06:12:10;;;;;;;0.97;0.80;;;;;;;14.27;61.61;100672.94;4983250;28;20208;-80
2022/09/03 06:14:36;;;;;;;1.30;1.10;;;;;;;14.29;61.96;100668.50;4986330;28;20220;-79
2022/09/03 06:17:04;;;;;;;1.53;1.20;;;;;;;14.33;62.46;100670.16;4971007;28;20230;-81
2022/09/03 06:19:30;;;;;;;1.97;1.20;;;;;;;14.35;62.19;100656.94;4968292;28;20652;-83
2022/09/03 06:21:56;;;;;;;2.07;1.00;;;;;;;14.40;62.43;100653.28;4967011;28;20638;-81
2022/09/03 06:24:28;;;;;;;1.10;1.00;;;;;;;14.43;62.41;100653.19;4966732;28;20251;-82
2022/09/03 06:26:58;;;;;;;1.20;1.10;;;;;;;14.50;61.84;100659.09;4966156;28;20670;-82
2022/09/03 06:29:34;;;;;;;1.37;0.90;;;;;;;14.51;62.36;100652.94;4958960;28;20223;-83
2022/09/03 06:32:03;;;;;;;3.70;1.10;;;;;;;14.55;62.45;100651.94;4958161;28;20299;-83
2022/09/03 06:34:31;;;;;;;1.60;1.40;;;;;;;14.57;62.63;100644.03;4958288;29;20271;-82
2022/09/03 06:36:58;;;;;;;1.50;1.30;;;;;;;14.65;62.62;100642.03;4958570;28;20219;-81
2022/09/03 06:39:25;;;;;;;1.47;1.10;;;;;;;14.71;62.66;100644.47;4958451;28;20235;-83
2022/09/03 06:41:52;;;;;;;0.90;0.90;;;;;;;14.81;62.56;100655.53;4958562;28;20270;-83
2022/09/03 06:44:21;;;;;;;2.53;0.90;;;;;;;14.85;62.46;100646.63;4981989;28;20261;-83
2022/09/03 06:46:52;;;;;;;1.77;1.23;;;;;;;14.93;62.55;100647.22;4958058;28;20278;-80
2022/09/03 06:49:18;;;;;;;1.57;1.00;;;;;;;15.00;61.90;100661.00;4958178;28;20236;-83
2022/09/03 06:51:46;;;;;;;4.10;1.10;;;;;;;15.06;62.14;100680.09;4956806;28;20209;-83
2022/09/03 06:54:14;;;;;;;2.33;1.00;;;;;;;15.11;61.74;100677.28;4957404;28;20229;-82
2022/09/03 06:56:44;;;;;;;1.93;1.10;;;;;;;15.16;61.28;100698.16;4957676;28;20240;-81
2022/09/03 06:59:17;;;;;;;1.03;1.03;;;;;;;15.21;61.44;100704.13;4959284;28;20205;-80
2022/09/03 07:01:46;;;;;;;1.57;1.10;;;;;;;15.31;61.21;100709.94;4970167;28;20308;-83
2022/09/03 07:04:15;;;;;;;1.80;1.00;;;;;;;15.33;61.63;100708.97;4972187;28;20738;-80
2022/09/03 07:06:43;;;;;;;3.27;0.87;;;;;;;15.41;61.70;100698.19;4972968;28;20235;-79
2022/09/03 07:09:11;;;;;;;0.83;0.83;;;;;;;15.49;61.80;100697.00;4972757;28;20258;-81
2022/09/03 07:11:45;;;;;;;1.60;1.10;;;;;;;15.54;61.50;100694.22;4972589;28;20220;-82
2022/09/03 07:14:11;;;;;;;1.10;0.90;;;;;;;15.60;61.50;100694.00;4971274;28;20326;-81
2022/09/03 07:16:38;;;;;;;1.47;0.93;;;;;;;15.69;63.44;100667.34;4970603;28;20636;-81
2022/09/03 07:19:06;;;;;;;1.90;1.20;;;;;;;15.71;61.57;100683.06;4972044;28;20205;-80
2022/09/03 07:21:35;;;;;;;0.83;0.80;;;;;;;15.75;61.17;100707.53;4970795;28;20236;-81
2022/09/03 07:24:03;;;;;;;2.25;1.20;;;;;;;15.79;60.32;100738.97;4971660;28;20359;-81
2022/09/03 07:26:34;;;;;;;2.27;1.30;;;;;;;15.83;59.98;100760.78;4970443;28;20208;-81
2022/09/03 07:29:00;;;;;;;1.70;1.07;;;;;;;15.85;60.02;100778.22;4970829;28;20243;-79
2022/09/03 07:31:28;;;;;;;1.57;1.00;;;;;;;15.87;59.94;100784.28;4970803;28;20235;-81
2022/09/03 07:33:55;;;;;;;1.03;0.80;;;;;;;15.91;60.06;100778.94;4971670;28;20232;-82
2022/09/03 07:36:23;;;;;;;1.67;1.20;;;;;;;15.97;59.32;100783.97;4970693;28;20219;-82
2022/09/03 07:38:50;;;;;;;1.30;0.93;;;;;;;15.99;59.42;100790.03;4970780;28;20697;-78
2022/09/03 07:41:16;;;;;;;1.47;1.00;;;;;;;16.05;59.40;100798.59;4970486;28;20249;-80
2022/09/03 07:43:48;;;;;;;1.63;1.20;;;;;;;16.12;58.93;100787.84;4970926;28;20297;-80
2022/09/03 07:46:19;;;;;;;1.40;1.07;;;;;;;16.17;59.50;100813.06;4970754;28;20765;-81
2022/09/03 07:48:47;;;;;;;9.53;1.73;;;;;;;16.19;59.34;100790.16;4970743;28;20659;-81
2022/09/03 07:51:14;;;;;;;3.10;1.30;;;;;;;16.24;58.96;100796.16;4970928;28;20286;-79
2022/09/03 07:53:40;;;;;;;1.43;1.00;;;;;;;16.32;58.58;100797.66;4971207;28;20228;-81
2022/09/03 07:56:09;;;;;;;5.80;5.40;;;;;;;16.40;59.13;100800.84;4970835;28;20261;-82
2022/09/03 07:58:37;;;;;;;4.27;1.13;;;;;;;16.52;58.43;100816.19;4970501;28;20275;-80
2022/09/03 08:01:07;;;;;;;1.00;0.90;;;;;;;16.55;58.00;100823.13;4970834;28;20208;-81
2022/09/03 08:03:34;;;;;;;1.20;1.10;;;;;;;16.62;57.76;100850.97;4971209;28;20942;-82
2022/09/03 08:06:02;;;;;;;1.20;1.10;;;;;;;16.68;57.70;100838.41;4969931;28;20208;-82
2022/09/03 08:08:28;;;;;;;1.10;1.00;;;;;;;16.79;57.46;100861.75;4970559;28;20286;-81
2022/09/03 08:10:55;;;;;;;2.20;1.00;;;;;;;16.87;57.46;100859.72;4969707;28;20291;-80
2022/09/03 08:13:21;;;;;;;1.57;1.07;;;;;;;16.98;57.11;100874.25;4969991;28;20232;-81
2022/09/03 08:15:54;;;;;;;1.40;1.30;;;;;;;17.09;56.91;100884.41;4969825;28;20211;-81
2022/09/03 08:18:24;;;;;;;1.00;0.90;;;;;;;17.21;56.43;100891.84;4971731;28;20208;-81
2022/09/03 08:20:52;;;;;;;1.07;1.00;;;;;;;17.32;56.27;100897.53;4970439;28;20208;-80
2022/09/03 08:23:18;;;;;;;1.50;0.90;;;;;;;17.44;56.05;100914.66;4969406;28;20238;-81
2022/09/03 08:25:45;;;;;;;2.27;1.23;;;;;;;17.51;55.51;100931.97;4970496;28;20271;-81
2022/09/03 08:28:13;;;;;;;1.40;1.30;;;;;;;17.59;55.46;100948.34;4970289;28;20745;-81
2022/09/03 08:30:39;;;;;;;1.50;1.00;;;;;;;17.66;55.61;100941.94;4970139;28;20228;-82
2022/09/03 08:33:07;;;;;;;1.77;1.10;;;;;;;17.76;55.20;100941.53;4969508;28;20845;-82
2022/09/03 08:35:36;;;;;;;1.20;1.10;;;;;;;17.84;54.51;100972.03;4969740;28;20208;-82
2022/09/03 08:38:05;;;;;;;1.93;1.20;;;;;;;17.94;54.29;100972.53;4970351;28;20294;-81
2022/09/03 08:40:34;;;;;;;1.80;1.10;;;;;;;17.99;55.67;100967.03;4970467;28;20216;-83
2022/09/03 08:43:16;;;;;;;0.87;0.87;;;;;;;18.09;56.00;100927.88;4969801;28;20259;-83
2022/09/03 08:45:43;;;;;;;1.93;1.23;;;;;;;18.17;54.55;100944.28;4969851;28;20299;-85
2022/09/03 08:48:15;;;;;;;3.00;1.00;;;;;;;18.27;53.76;100982.59;4969991;28;20239;-85
2022/09/03 08:50:54;;;;;;;1.77;1.40;;;;;;;18.33;52.65;101015.84;4971250;28;20232;-83
2022/09/03 08:53:26;;;;;;;0.83;0.83;;;;;;;18.41;52.29;101040.16;4979865;23;20334;-79
2022/09/03 08:55:56;;;;;;;1.77;0.93;;;;;;;18.46;52.41;101056.69;4974769;28;20216;-80
2022/09/03 08:58:32;;;;;;;1.70;1.04;;;;;;;18.53;52.62;101050.25;4515670;28;10003318;-79
2022/09/03 09:01:04;;;;;;;1.87;1.10;;;;;;;18.60;52.50;101056.13;4972799;28;20212;-79
2022/09/03 09:03:52;;;;;;;2.00;1.10;;;;;;;18.64;53.34;101037.41;4974811;28;20228;-78
2022/09/03 09:06:29;;;;;;;2.30;1.10;;;;;;;18.66;52.94;101016.19;4971596;28;20212;-79
2022/09/03 09:09:07;;;;;;;1.57;0.97;;;;;;;18.65;53.34;101023.28;4975657;28;20243;-79
2022/09/03 09:11:53;;;;;;;2.17;1.20;;;;;;;18.71;51.57;101029.19;4975362;28;20232;-79
2022/09/03 09:14:31;;;;;;;1.10;1.00;;;;;;;18.71;51.30;101077.69;4974568;28;20232;-79
2022/09/03 09:17:04;;;;;;;2.23;0.97;;;;;;;18.79;50.80;101079.97;4955685;29;20216;-78
2022/09/03 09:19:41;;;;;;;1.10;0.90;;;;;;;18.87;50.39;101071.75;4956232;28;20215;-79
2022/09/03 09:22:12;;;;;;;1.10;0.90;;;;;;;18.92;52.85;101094.44;4956002;28;20247;-79
2022/09/03 09:24:44;;;;;;;1.10;1.00;;;;;;;19.02;51.09;101049.91;4955675;28;20233;-78
2022/09/03 09:27:15;;;;;;;1.73;1.00;;;;;;;19.12;49.87;101085.63;4954622;29;20632;-79
2022/09/03 09:29:45;;;;;;;5.40;1.20;;;;;;;19.20;50.50;101098.50;4955141;29;20228;-78
2022/09/03 09:32:14;;;;;;;1.40;1.13;;;;;;;19.30;48.89;101123.66;4955471;29;20209;-79
2022/09/03 09:34:41;;;;;;;3.47;1.10;;;;;;;19.36;49.09;101123.38;4955675;28;20237;-79
2022/09/03 09:37:12;;;;;;;2.30;1.00;;;;;;;19.43;49.52;101131.91;4955413;28;20205;-78
2022/09/03 09:39:39;;;;;;;2.03;0.80;;;;;;;19.52;48.54;101135.94;4956465;29;20211;-79
2022/09/03 09:42:08;;;;;;;1.27;0.90;;;;;;;19.63;47.71;101154.84;4955503;28;20659;-79
2022/09/03 09:44:35;;;;;;;0.83;0.83;;;;;;;19.68;47.70;101187.28;4973691;28;20235;-80
2022/09/03 09:47:07;;;;;;;1.90;1.47;;;;;;;19.79;47.01;101205.38;4975979;28;20208;-79
2022/09/03 09:49:36;;;;;;;2.80;1.00;;;;;;;19.83;46.79;101220.22;4976320;28;20664;-79
2022/09/03 09:52:07;;;;;;;1.30;0.90;;;;;;;19.90;47.24;101203.13;4975827;28;20211;-78
2022/09/03 09:54:35;;;;;;;2.40;1.10;;;;;;;19.99;46.75;101201.81;4975311;28;20247;-79
2022/09/03 09:57:04;;;;;;;1.13;1.03;;;;;;;20.06;46.28;101212.97;4974840;28;20212;-79
2022/09/03 09:59:31;;;;;;;2.53;1.33;;;;;;;20.11;45.98;101238.34;4975266;28;20216;-78
2022/09/03 10:02:10;;;;;;;1.00;0.97;;;;;;;20.19;46.31;101230.03;4976081;28;20222;-79
2022/09/03 10:04:39;;;;;;;2.17;1.33;;;;;;;20.25;45.60;101232.41;4976173;28;20232;-78
2022/09/03 10:07:20;;;;;;;1.50;1.10;;;;;;;20.29;45.73;101233.97;4983736;28;20208;-79
2022/09/03 10:09:58;;;;;;;2.07;1.70;;;;;;;20.38;45.45;101241.53;4991134;28;20198;-77
2022/09/03 10:12:31;;;;;;;1.33;1.10;;;;;;;20.42;45.41;101248.41;4991919;28;20266;-79
2022/09/03 10:15:05;;;;;;;2.60;1.13;;;;;;;20.51;44.99;101240.94;4992413;28;20599;-77
2022/09/03 10:17:49;;;;;;;3.33;1.00;;;;;;;20.60;44.37;101261.75;4989440;28;20216;-77
2022/09/03 10:20:29;;;;;;;1.67;1.10;;;;;;;20.63;44.00;101286.34;4984827;28;20309;-78
2022/09/03 10:23:00;;;;;;;0.77;0.77;;;;;;;20.72;43.41;101310.72;4974557;28;20212;-79
2022/09/03 10:25:37;;;;;;;5.20;1.43;;;;;;;20.79;43.46;101323.63;4975564;28;20319;-78
2022/09/03 10:28:06;;;;;;;2.33;1.10;;;;;;;20.83;44.02;101300.44;4973633;28;20216;-79
2022/09/03 10:30:48;;;;;;;1.83;1.33;;;;;;;20.90;42.96;101308.97;4973526;28;20232;-79
2022/09/03 10:33:19;;;;;;;1.20;0.97;;;;;;;20.98;43.63;101343.97;4973888;28;20228;-78
2022/09/03 10:35:51;;;;;;;1.10;0.90;;;;;;;21.04;44.13;101285.28;4977404;28;20215;-79
2022/09/03 10:38:24;;;;;;;2.40;1.63;;;;;;;21.08;43.25;101302.75;4977851;28;20628;-79
2022/09/03 10:40:59;;;;;;;2.70;1.00;;;;;;;21.15;42.46;101296.22;4978093;28;20203;-79
2022/09/03 10:43:45;;;;;;;6.63;1.17;;;;;;;21.21;41.36;101364.97;4977977;28;20231;-78
2022/09/03 10:46:18;;;;;;;1.23;0.80;;;;;;;21.22;42.96;101333.94;4977865;28;20208;-77
2022/09/03 10:49:03;;;;;;;1.00;1.00;;;;;;;21.29;42.20;101327.41;4986891;28;20643;-77
2022/09/03 10:51:35;;;;;;;1.07;1.00;;;;;;;21.40;41.62;101362.25;4987138;28;20223;-79
2022/09/03 10:54:16;;;;;;;2.00;1.00;;;;;;;21.49;42.68;101339.72;4985002;28;20228;-79
2022/09/03 10:56:54;;;;;;;0.80;0.80;;;;;;;21.57;42.56;101308.31;4985230;28;20208;-78
2022/09/03 10:59:32;;;;;;;2.67;1.00;;;;;;;21.66;41.72;101348.63;4983481;28;20673;-79
2022/09/03 11:02:16;;;;;;;1.43;1.10;;;;;;;21.78;42.37;101311.66;4983647;28;20207;-78
2022/09/03 11:04:49;;;;;;;1.10;1.10;;;;;;;21.89;41.43;101343.00;4984865;28;20318;-79
2022/09/03 11:07:20;;;;;;;0.90;0.90;;;;;;;21.98;40.58;101368.22;4985664;28;20196;-76
2022/09/03 11:09:55;;;;;;;1.97;1.10;;;;;;;22.09;40.67;101384.50;4985388;28;21655;-79
2022/09/03 11:12:29;;;;;;;0.93;0.80;;;;;;;22.25;41.95;101357.13;4983714;28;20246;-79
2022/09/03 11:15:02;;;;;;;2.00;0.90;;;;;;;22.38;40.60;101358.19;4984126;28;20223;-80
2022/09/03 11:17:35;;;;;;;2.03;1.00;;;;;;;22.60;40.97;101333.94;4984211;28;20574;-79
2022/09/03 11:20:11;;;;;;;1.03;1.03;;;;;;;22.76;38.78;101381.88;4985240;28;20234;-79
2022/09/03 11:22:39;;;;;;;2.07;1.37;;;;;;;22.86;38.78;101441.63;4985841;28;20274;-79
2022/09/03 11:25:07;;;;;;;1.83;0.90;;;;;;;23.04;39.11;101444.28;4991830;28;20544;-79
2022/09/03 11:27:53;;;;;;;0.90;0.80;;;;;;;23.21;37.83;101462.84;4996665;28;20642;-80
2022/09/03 11:30:24;;;;;;;1.17;1.00;;;;;;;23.51;38.46;101451.41;4998345;28;20213;-80
2022/09/03 11:32:54;;;;;;;1.10;1.00;;;;;;;24.44;37.17;101452.16;4997571;28;20214;-77
2022/09/03 11:35:28;;;;;;;0.80;0.80;;;;;;;26.06;35.10;101531.00;4997371;28;20214;-80
2022/09/03 11:37:59;;;;;;;0.90;0.90;;;;;;;27.51;31.93;101694.34;4996443;28;20232;-79
2022/09/03 11:40:32;;;;;;;0.93;0.93;;;;;;;29.05;29.89;101812.09;4997674;28;20258;-77
2022/09/03 11:43:14;;;;;;;2.23;1.10;;;;;;;30.40;27.51;101889.66;4991588;28;20243;-80
2022/09/03 11:45:41;;;;;;;0.90;0.90;;;;;;;31.17;26.85;101945.44;4976090;28;20218;-81